createdAt,value
2019-05-09T00:01:35.873Z,99.90
2019-05-09T00:04:24.457Z,99.90
2019-05-09T00:07:13.969Z,99.90
2019-05-09T00:10:04.097Z,99.90
2019-05-09T00:12:54.067Z,99.90
2019-05-09T00:15:43.698Z,99.90
2019-05-09T00:18:33.626Z,99.90
2019-05-09T00:21:26.757Z,99.90
2019-05-09T00:24:15.187Z,99.90
2019-05-09T00:27:04.053Z,99.90
2019-05-09T00:29:53.251Z,99.90
2019-05-09T00:32:46.095Z,99.90
2019-05-09T00:35:36.384Z,99.90
2019-05-09T00:38:26.229Z,99.90
2019-05-09T00:41:14.827Z,99.90
2019-05-09T00:44:04.753Z,99.90
2019-05-09T00:47:07.203Z,99.90
2019-05-09T00:49:55.512Z,99.90
2019-05-09T00:52:44.215Z,99.90
2019-05-09T00:55:33.249Z,99.90
2019-05-09T00:58:24.051Z,99.90
2019-05-09T01:01:13.298Z,99.90
2019-05-09T01:04:04.122Z,99.90
2019-05-09T01:06:53.835Z,99.90
2019-05-09T01:09:43.872Z,99.90
2019-05-09T01:12:33.990Z,99.90
2019-05-09T01:15:28.456Z,99.90
2019-05-09T01:18:16.992Z,99.90
2019-05-09T01:21:05.425Z,99.90
2019-05-09T01:23:54.256Z,99.90
2019-05-09T01:26:43.545Z,99.90
2019-05-09T01:29:33.764Z,99.90
2019-05-09T01:32:40.211Z,99.90
2019-05-09T01:35:28.490Z,99.90
2019-05-09T01:38:17.215Z,99.90
2019-05-09T01:41:05.510Z,99.90
2019-05-09T01:43:53.886Z,99.90
2019-05-09T01:46:43.620Z,99.90
2019-05-09T01:49:34.239Z,99.90
2019-05-09T01:52:23.193Z,99.90
2019-05-09T01:55:11.555Z,99.90
2019-05-09T01:58:00.081Z,99.90
2019-05-09T02:00:48.493Z,99.90
2019-05-09T02:03:36.914Z,99.90
2019-05-09T02:06:25.184Z,99.90
2019-05-09T02:09:14.047Z,99.90
2019-05-09T02:12:03.782Z,99.90
2019-05-09T02:15:03.936Z,99.90
2019-05-09T02:18:04.322Z,99.90
2019-05-09T02:20:50.224Z,99.90
2019-05-09T02:23:38.407Z,99.90
2019-05-09T02:26:26.730Z,99.90
2019-05-09T02:29:14.920Z,99.90
2019-05-09T02:32:04.711Z,99.90
2019-05-09T02:34:55.261Z,99.90
2019-05-09T02:37:43.629Z,99.90
2019-05-09T02:40:31.734Z,99.90
2019-05-09T02:43:20.531Z,99.90
2019-05-09T02:46:29.560Z,99.90
2019-05-09T02:49:19.169Z,99.90
2019-05-09T02:52:08.911Z,99.90
2019-05-09T02:54:58.455Z,99.90
2019-05-09T02:57:49.035Z,99.90
2019-05-09T03:00:39.668Z,99.90
2019-05-09T03:03:29.899Z,99.90
2019-05-09T03:06:19.589Z,99.90
2019-05-09T03:09:09.068Z,99.90
2019-05-09T03:11:59.005Z,99.90
2019-05-09T03:14:48.720Z,99.90
2019-05-09T03:17:38.586Z,99.90
2019-05-09T03:20:31.269Z,99.90
2019-05-09T03:23:19.782Z,99.90
2019-05-09T03:26:09.746Z,99.90
2019-05-09T03:29:08.988Z,99.90
2019-05-09T03:32:00.081Z,99.90
2019-05-09T03:34:48.197Z,99.90
2019-05-09T03:37:37.861Z,99.90
2019-05-09T03:40:27.203Z,99.90
2019-05-09T03:43:15.641Z,99.90
2019-05-09T03:46:20.823Z,99.90
2019-05-09T03:49:11.017Z,99.90
2019-05-09T03:51:59.603Z,99.90
2019-05-09T03:54:48.135Z,99.90
2019-05-09T03:57:38.357Z,99.90
2019-05-09T04:00:28.331Z,99.90
2019-05-09T04:03:19.805Z,99.90
2019-05-09T04:06:08.316Z,99.90
2019-05-09T04:08:58.551Z,99.90
2019-05-09T04:11:48.561Z,99.90
2019-05-09T04:14:38.315Z,99.90
2019-05-09T04:17:43.563Z,99.90
2019-05-09T04:20:32.136Z,99.90
2019-05-09T04:23:20.726Z,99.90
2019-05-09T04:26:17.700Z,99.90
2019-05-09T04:29:08.039Z,99.90
2019-05-09T04:31:57.508Z,99.90
2019-05-09T04:34:47.309Z,99.90
2019-05-09T04:37:38.026Z,99.90
2019-05-09T04:40:31.778Z,99.90
2019-05-09T04:43:10.883Z,99.90
2019-05-09T04:45:43.617Z,99.90
2019-05-09T04:48:37.568Z,99.90
2019-05-09T04:51:08.448Z,99.90
2019-05-09T04:53:39.853Z,99.90
2019-05-09T04:56:17.576Z,99.90
2019-05-09T04:58:48.883Z,99.90
2019-05-09T05:01:39.098Z,99.90
2019-05-09T05:04:10.034Z,99.90
2019-05-09T05:06:47.798Z,99.90
2019-05-09T05:09:21.338Z,99.90
2019-05-09T05:11:51.984Z,99.90
2019-05-09T05:14:22.503Z,99.90
2019-05-09T05:16:55.391Z,99.90
2019-05-09T05:19:30.960Z,99.90
2019-05-09T05:22:01.001Z,99.90
2019-05-09T05:24:33.324Z,99.90
2019-05-09T05:27:24.336Z,99.90
2019-05-09T05:29:55.088Z,99.90
2019-05-09T05:32:30.713Z,99.90
2019-05-09T05:35:03.545Z,99.90
2019-05-09T05:37:34.500Z,99.90
2019-05-09T05:40:07.819Z,99.90
2019-05-09T05:42:38.905Z,99.90
2019-05-09T05:45:09.559Z,99.90
2019-05-09T05:47:48.526Z,99.90
2019-05-09T05:50:19.307Z,99.90
2019-05-09T05:52:49.881Z,99.90
2019-05-09T05:55:20.565Z,99.90
2019-05-09T05:57:51.139Z,99.90
2019-05-09T06:00:23.340Z,99.90
2019-05-09T06:02:53.926Z,99.90
2019-05-09T06:05:24.638Z,99.90
2019-05-09T06:07:57.467Z,99.90
2019-05-09T06:10:28.969Z,99.90
2019-05-09T06:12:59.734Z,99.90
2019-05-09T06:15:30.321Z,99.90
2019-05-09T06:18:01.077Z,99.90
2019-05-09T06:20:32.889Z,99.90
2019-05-09T06:23:03.332Z,99.90
2019-05-09T06:25:33.729Z,99.90
2019-05-09T06:28:04.826Z,99.90
2019-05-09T06:30:40.930Z,99.90
2019-05-09T06:33:08.990Z,99.90
2019-05-09T06:35:39.723Z,99.90
2019-05-09T06:38:10.600Z,99.90
2019-05-09T06:40:42.197Z,99.90
2019-05-09T06:43:20.542Z,99.90
2019-05-09T06:46:08.947Z,99.90
2019-05-09T06:48:41.155Z,99.90
2019-05-09T06:51:11.902Z,99.90
2019-05-09T06:53:42.481Z,99.90
2019-05-09T06:56:13.073Z,99.90
2019-05-09T06:58:43.999Z,99.90
2019-05-09T07:01:25.205Z,99.90
2019-05-09T07:04:12.132Z,99.90
2019-05-09T07:06:48.268Z,99.90
2019-05-09T07:09:20.573Z,99.90
2019-05-09T07:11:51.092Z,99.90
2019-05-09T07:14:32.374Z,99.90
2019-05-09T07:17:00.706Z,99.90
2019-05-09T07:19:31.099Z,99.90
2019-05-09T07:22:03.466Z,99.90
2019-05-09T07:24:37.722Z,99.90
2019-05-09T07:27:07.795Z,99.90
2019-05-09T07:29:38.365Z,99.90
2019-05-09T07:32:18.207Z,99.90
2019-05-09T07:34:50.031Z,99.90
2019-05-09T07:37:20.930Z,99.90
2019-05-09T07:39:52.683Z,99.90
2019-05-09T07:42:23.269Z,99.90
2019-05-09T07:44:53.874Z,99.90
2019-05-09T07:47:24.415Z,99.90
2019-05-09T07:49:55.485Z,99.90
2019-05-09T07:52:28.246Z,99.90
2019-05-09T07:54:58.190Z,99.90
2019-05-09T07:57:28.809Z,99.90
2019-05-09T07:59:59.271Z,99.90
2019-05-09T08:02:29.709Z,99.90
2019-05-09T08:05:00.327Z,99.90
2019-05-09T08:07:30.883Z,99.90
2019-05-09T08:10:02.443Z,99.90
2019-05-09T08:12:33.120Z,99.90
2019-05-09T08:15:15.764Z,99.90
2019-05-09T08:17:37.952Z,99.90
2019-05-09T08:20:08.162Z,99.90
2019-05-09T08:22:41.166Z,99.90
2019-05-09T08:25:10.913Z,99.90
2019-05-09T08:27:41.482Z,99.90
2019-05-09T08:30:11.894Z,99.90
2019-05-09T08:32:42.572Z,99.90
2019-05-09T08:35:13.393Z,99.90
2019-05-09T08:37:43.935Z,99.90
2019-05-09T08:40:14.406Z,99.90
2019-05-09T08:42:44.885Z,99.90
2019-05-09T08:45:26.851Z,99.90
2019-05-09T08:47:48.458Z,99.90
2019-05-09T08:50:24.647Z,99.90
2019-05-09T08:52:57.661Z,99.90
2019-05-09T08:55:27.950Z,99.90
2019-05-09T08:57:58.800Z,99.90
2019-05-09T09:00:29.683Z,99.90
2019-05-09T09:03:00.439Z,99.90
2019-05-09T09:08:20.653Z,99.90
2019-05-09T09:10:51.223Z,99.90
2019-05-09T09:13:21.904Z,99.90
2019-05-09T09:16:10.522Z,99.90
2019-05-09T09:18:25.380Z,99.90
2019-05-09T09:20:58.715Z,99.90
2019-05-09T09:23:42.863Z,99.90
2019-05-09T09:26:01.341Z,99.90
2019-05-09T09:28:31.873Z,99.10
2019-05-09T09:31:02.490Z,98.50
2019-05-09T09:33:33.129Z,98.10
2019-05-09T09:36:03.608Z,99.20
2019-05-09T09:38:34.245Z,99.30
2019-05-09T09:41:04.880Z,99.90
2019-05-09T09:43:38.160Z,99.90
2019-05-09T09:46:14.379Z,96.80
2019-05-09T09:48:40.503Z,98.00
2019-05-09T09:51:11.238Z,97.40
2019-05-09T09:53:42.221Z,98.70
2019-05-09T09:56:12.863Z,97.20
2019-05-09T09:58:45.174Z,96.50
2019-05-09T10:01:29.303Z,97.80
2019-05-09T10:04:16.659Z,96.40
2019-05-09T10:06:38.881Z,97.80
2019-05-09T10:09:11.009Z,97.30
2019-05-09T10:11:41.547Z,95.80
2019-05-09T10:14:13.629Z,97.60
2019-05-09T10:16:48.709Z,95.40
2019-05-09T10:19:20.825Z,96.60
2019-05-09T10:21:53.046Z,97.90
2019-05-09T10:24:23.462Z,94.60
2019-05-09T10:27:08.807Z,97.00
2019-05-09T10:29:39.247Z,94.70
2019-05-09T10:32:11.457Z,94.20
2019-05-09T10:34:42.175Z,94.10
2019-05-09T10:37:12.822Z,94.00
2019-05-09T10:39:48.747Z,93.90
2019-05-09T10:42:28.750Z,94.70
2019-05-09T10:45:19.111Z,94.30
2019-05-09T10:48:08.339Z,94.20
2019-05-09T10:51:04.373Z,94.00
2019-05-09T10:53:48.377Z,93.70
2019-05-09T10:56:38.453Z,94.40
2019-05-09T10:59:26.864Z,93.80
2019-05-09T11:02:17.542Z,95.00
2019-05-09T11:05:08.343Z,94.30
2019-05-09T11:07:58.772Z,92.80
2019-05-09T11:10:47.513Z,92.30
2019-05-09T11:13:35.965Z,91.60
2019-05-09T11:16:38.041Z,91.30
2019-05-09T11:19:14.395Z,91.20
2019-05-09T11:22:03.141Z,91.40
2019-05-09T11:24:51.818Z,91.10
2019-05-09T11:27:40.357Z,90.10
2019-05-09T11:30:29.020Z,90.70
2019-05-09T11:33:18.287Z,90.50
2019-05-09T11:36:09.690Z,86.40
2019-05-09T11:39:00.149Z,91.40
2019-05-09T11:41:48.661Z,84.70
2019-05-09T11:44:38.418Z,85.80
2019-05-09T11:47:36.162Z,87.20
2019-05-09T11:50:22.151Z,88.90
2019-05-09T11:53:08.864Z,88.10
2019-05-09T11:55:57.791Z,91.60
2019-05-09T11:58:48.169Z,87.30
2019-05-09T12:01:39.459Z,83.70
2019-05-09T12:04:28.154Z,85.40
2019-05-09T12:07:17.827Z,87.10
2019-05-09T12:10:07.815Z,83.40
2019-05-09T12:12:57.645Z,80.50
2019-05-09T12:15:48.848Z,81.20
2019-05-09T12:18:37.791Z,86.10
2019-05-09T12:21:28.012Z,88.50
2019-05-09T12:24:18.176Z,91.10
2019-05-09T12:27:08.562Z,88.20
2019-05-09T12:29:58.142Z,87.00
2019-05-09T12:32:46.334Z,89.90
2019-05-09T12:35:34.845Z,84.80
2019-05-09T12:38:23.128Z,86.00
2019-05-09T12:41:11.834Z,84.20
2019-05-09T12:44:00.481Z,81.50
2019-05-09T12:46:48.990Z,81.80
2019-05-09T12:49:38.592Z,83.60
2019-05-09T12:52:28.735Z,79.60
2019-05-09T12:55:17.979Z,82.20
2019-05-09T12:58:09.634Z,86.40
2019-05-09T13:00:58.393Z,85.00
2019-05-09T13:03:48.595Z,84.30
2019-05-09T13:06:38.073Z,80.00
2019-05-09T13:09:28.604Z,78.10
2019-05-09T13:12:18.098Z,77.20
2019-05-09T13:15:08.712Z,83.00
2019-05-09T13:17:57.951Z,84.00
2019-05-09T13:20:48.633Z,78.40
2019-05-09T13:23:36.846Z,81.40
2019-05-09T13:26:25.218Z,83.00
2019-05-09T13:29:13.955Z,83.90
2019-05-09T13:32:02.533Z,82.80
2019-05-09T13:34:51.065Z,81.70
2019-05-09T13:37:40.172Z,78.80
2019-05-09T13:40:29.296Z,77.00
2019-05-09T13:43:19.011Z,77.40
2019-05-09T13:46:08.953Z,77.50
2019-05-09T13:49:10.958Z,77.60
2019-05-09T13:51:57.466Z,77.90
2019-05-09T13:54:38.252Z,72.30
2019-05-09T13:57:27.753Z,72.90
2019-05-09T14:00:18.376Z,71.90
2019-05-09T14:03:08.187Z,74.40
2019-05-09T14:05:58.653Z,74.30
2019-05-09T14:08:48.940Z,78.00
2019-05-09T14:11:37.012Z,77.40
2019-05-09T14:14:27.930Z,80.20
2019-05-09T14:17:18.753Z,76.90
2019-05-09T14:20:08.779Z,73.30
2019-05-09T14:22:57.626Z,78.20
2019-05-09T14:25:49.282Z,69.90
2019-05-09T14:28:36.057Z,70.30
2019-05-09T14:31:24.337Z,72.00
2019-05-09T14:34:13.129Z,70.00
2019-05-09T14:37:01.603Z,70.50
2019-05-09T14:39:58.413Z,71.80
2019-05-09T14:42:41.460Z,69.20
2019-05-09T14:45:30.303Z,72.60
2019-05-09T14:48:19.291Z,72.60
2019-05-09T14:51:28.489Z,77.40
2019-05-09T14:54:16.656Z,73.80
2019-05-09T14:57:04.925Z,75.30
2019-05-09T14:59:53.437Z,77.80
2019-05-09T15:02:41.946Z,77.40
2019-05-09T15:05:30.570Z,78.10
2019-05-09T15:08:18.705Z,77.70
2019-05-09T15:11:09.820Z,79.10
2019-05-09T15:13:58.516Z,78.80
2019-05-09T15:16:48.528Z,79.50
2019-05-09T15:19:38.545Z,81.20
2019-05-09T15:22:28.525Z,81.50
2019-05-09T15:25:19.047Z,80.70
2019-05-09T15:28:08.220Z,83.30
2019-05-09T15:30:59.135Z,81.80
2019-05-09T15:33:48.644Z,83.30
2019-05-09T15:36:37.943Z,81.10
2019-05-09T15:39:27.884Z,82.20
2019-05-09T15:42:18.265Z,83.40
2019-05-09T15:45:07.792Z,84.70
2019-05-09T15:47:58.185Z,84.00
2019-05-09T15:50:47.715Z,85.90
2019-05-09T15:53:37.989Z,86.30
2019-05-09T15:56:28.674Z,85.40
2019-05-09T15:59:18.133Z,84.50
2019-05-09T16:02:08.947Z,86.30
2019-05-09T16:04:58.392Z,85.30
2019-05-09T16:07:48.215Z,84.40
2019-05-09T16:10:37.450Z,84.30
2019-05-09T16:13:28.303Z,84.70
2019-05-09T16:16:17.548Z,85.20
2019-05-09T16:19:05.900Z,84.20
2019-05-09T16:21:54.372Z,85.20
2019-05-09T16:24:43.092Z,84.00
2019-05-09T16:27:31.621Z,84.40
2019-05-09T16:30:20.083Z,84.90
2019-05-09T16:33:09.007Z,87.10
2019-05-09T16:35:57.571Z,86.40
2019-05-09T16:38:42.028Z,87.00
2019-05-09T16:41:03.225Z,86.30
2019-05-09T16:43:33.915Z,85.60
2019-05-09T16:46:04.545Z,85.60
2019-05-09T16:48:35.231Z,86.30
2019-05-09T16:51:07.772Z,87.00
2019-05-09T16:53:37.988Z,87.10
2019-05-09T16:56:08.843Z,87.70
2019-05-09T16:58:39.960Z,88.60
2019-05-09T17:01:10.828Z,87.20
2019-05-09T17:03:41.601Z,86.40
2019-05-09T17:06:13.911Z,87.40
2019-05-09T17:08:44.809Z,87.70
2019-05-09T17:11:18.966Z,88.00
2019-05-09T17:13:48.463Z,88.80
2019-05-09T17:16:19.019Z,89.40
2019-05-09T17:18:49.676Z,88.10
2019-05-09T17:21:28.118Z,88.60
2019-05-09T17:23:59.495Z,88.10
2019-05-09T17:26:30.502Z,88.10
2019-05-09T17:29:01.594Z,88.90
2019-05-09T17:31:32.199Z,89.20
2019-05-09T17:34:03.957Z,90.10
2019-05-09T17:36:35.705Z,90.00
2019-05-09T17:39:08.058Z,89.90
2019-05-09T17:41:39.207Z,90.20
2019-05-09T17:44:09.824Z,89.80
2019-05-09T17:46:40.473Z,90.00
2019-05-09T17:49:11.240Z,89.80
2019-05-09T17:51:41.972Z,90.50
2019-05-09T17:54:12.833Z,90.60
2019-05-09T17:56:43.378Z,90.70
2019-05-09T17:59:14.009Z,92.80
2019-05-09T18:01:45.098Z,93.40
2019-05-09T18:04:17.778Z,94.40
2019-05-09T18:06:48.902Z,95.00
2019-05-09T18:09:19.957Z,95.50
2019-05-09T18:11:50.728Z,95.90
2019-05-09T18:14:21.289Z,95.30
2019-05-09T18:16:52.068Z,95.70
2019-05-09T18:19:23.387Z,95.70
2019-05-09T18:21:54.573Z,95.70
2019-05-09T18:24:28.358Z,94.80
2019-05-09T18:26:58.387Z,95.00
2019-05-09T18:29:29.163Z,95.30
2019-05-09T18:32:01.426Z,96.00
2019-05-09T18:34:32.047Z,96.10
2019-05-09T18:37:02.884Z,96.10
2019-05-09T18:39:33.847Z,96.50
2019-05-09T18:42:04.505Z,96.40
2019-05-09T18:44:35.438Z,97.20
2019-05-09T18:47:07.792Z,97.70
2019-05-09T18:49:40.165Z,98.30
2019-05-09T18:52:11.801Z,97.80
2019-05-09T18:54:43.284Z,99.00
2019-05-09T18:57:13.998Z,99.20
2019-05-09T18:59:44.975Z,99.50
2019-05-09T19:02:15.578Z,99.50
2019-05-09T19:04:46.367Z,99.20
2019-05-09T19:07:22.388Z,98.70
2019-05-09T19:09:49.562Z,98.60
2019-05-09T19:12:20.465Z,98.80
2019-05-09T19:14:51.403Z,98.50
2019-05-09T19:17:23.972Z,98.20
2019-05-09T19:19:56.221Z,98.40
2019-05-09T19:22:28.513Z,98.80
2019-05-09T19:24:59.450Z,99.20
2019-05-09T19:27:31.196Z,99.20
2019-05-09T19:30:02.436Z,99.80
2019-05-09T19:32:33.560Z,99.80
2019-05-09T19:35:06.161Z,99.90
2019-05-09T19:37:37.737Z,99.40
2019-05-09T19:40:10.537Z,99.50
2019-05-09T19:42:42.657Z,99.70
2019-05-09T19:45:13.912Z,98.60
2019-05-09T19:47:45.177Z,98.40
2019-05-09T19:50:17.094Z,99.00
2019-05-09T19:52:48.191Z,98.80
2019-05-09T19:55:19.439Z,98.60
2019-05-09T19:57:50.454Z,98.60
2019-05-09T20:00:22.102Z,98.50
2019-05-09T20:02:56.155Z,98.60
2019-05-09T20:05:26.712Z,98.70
2019-05-09T20:07:58.201Z,98.20
2019-05-09T20:10:31.913Z,99.20
2019-05-09T20:13:14.675Z,98.70
2019-05-09T20:15:46.325Z,98.40
2019-05-09T20:18:17.948Z,98.40
2019-05-09T20:20:49.686Z,98.40
2019-05-09T20:23:20.781Z,98.20
2019-05-09T20:25:51.651Z,98.30
2019-05-09T20:28:23.399Z,97.90
2019-05-09T20:30:54.487Z,97.60
2019-05-09T20:33:25.243Z,97.80
2019-05-09T20:35:57.126Z,98.50
2019-05-09T20:38:28.238Z,98.30
2019-05-09T20:40:59.552Z,98.00
2019-05-09T20:43:30.613Z,97.90
2019-05-09T20:46:01.449Z,97.60
2019-05-09T20:48:33.695Z,98.30
2019-05-09T20:51:04.589Z,98.10
2019-05-09T20:53:35.537Z,98.00
2019-05-09T20:56:06.291Z,97.60
2019-05-09T20:58:37.111Z,98.00
2019-05-09T21:01:08.072Z,98.10
2019-05-09T21:03:40.677Z,98.40
2019-05-09T21:06:11.604Z,98.90
2019-05-09T21:08:42.822Z,98.30
2019-05-09T21:11:13.524Z,99.00
2019-05-09T21:13:48.591Z,99.10
2019-05-09T21:16:17.715Z,99.40
2019-05-09T21:18:48.612Z,99.40
2019-05-09T21:21:19.411Z,98.70
2019-05-09T21:23:50.955Z,98.40
2019-05-09T21:26:22.575Z,98.50
2019-05-09T21:28:53.496Z,98.90
2019-05-09T21:31:24.421Z,98.60
2019-05-09T21:33:55.750Z,98.50
2019-05-09T21:36:26.380Z,98.30
2019-05-09T21:38:56.977Z,99.40
2019-05-09T21:41:28.040Z,99.40
2019-05-09T21:43:59.016Z,99.20
2019-05-09T21:46:29.635Z,99.30
2019-05-09T21:49:00.294Z,99.20
2019-05-09T21:51:30.925Z,99.10
2019-05-09T21:54:01.661Z,99.20
2019-05-09T21:56:32.659Z,99.30
2019-05-09T21:59:03.986Z,99.30
2019-05-09T22:01:34.753Z,99.10
2019-05-09T22:04:05.882Z,99.20
2019-05-09T22:06:36.406Z,99.50
2019-05-09T22:09:09.522Z,99.50
2019-05-09T22:11:40.278Z,99.30
2019-05-09T22:14:10.965Z,99.10
2019-05-09T22:16:42.932Z,99.00
2019-05-09T22:19:13.845Z,99.10
2019-05-09T22:21:44.358Z,99.10
2019-05-09T22:24:15.167Z,99.10
2019-05-09T22:26:45.974Z,99.20
2019-05-09T22:29:16.621Z,99.40
2019-05-09T22:31:47.297Z,99.60
2019-05-09T22:34:17.843Z,99.90
2019-05-09T22:36:48.618Z,99.90
2019-05-09T22:39:21.963Z,99.80
2019-05-09T22:41:54.278Z,99.50
2019-05-09T22:44:24.983Z,99.50
2019-05-09T22:46:55.517Z,99.30
2019-05-09T22:49:26.286Z,99.50
2019-05-09T22:51:56.957Z,99.40
2019-05-09T22:54:27.555Z,99.50
2019-05-09T22:56:58.146Z,99.60
2019-05-09T22:59:28.624Z,99.30
2019-05-09T23:01:59.121Z,99.50
2019-05-09T23:04:29.853Z,99.50
2019-05-09T23:07:00.473Z,99.50
2019-05-09T23:09:30.923Z,99.60
2019-05-09T23:12:01.664Z,99.40
2019-05-09T23:14:32.720Z,99.30
2019-05-09T23:17:04.141Z,99.20
2019-05-09T23:19:34.784Z,99.40
2019-05-09T23:22:06.423Z,99.10
2019-05-09T23:24:40.272Z,99.40
2019-05-09T23:27:12.476Z,99.10
2019-05-09T23:29:42.926Z,98.30
2019-05-09T23:32:30.058Z,98.90
2019-05-09T23:35:00.604Z,98.30
2019-05-09T23:37:30.998Z,97.80
2019-05-09T23:40:01.506Z,97.00
2019-05-09T23:42:33.138Z,97.20
2019-05-09T23:45:04.599Z,97.30
2019-05-09T23:47:35.135Z,98.00
2019-05-09T23:50:06.193Z,98.20
2019-05-09T23:52:36.878Z,98.40
2019-05-09T23:55:25.004Z,98.20
2019-05-09T23:58:12.962Z,98.20
